Map

Track Data

SID SEASON NUMBER BASIN SUBBASIN NAME ISO_TIME NATURE LAT LON WMO_WIND WMO_PRES WMO_AGENCY TRACK_TYPE DIST2LAND LANDFALL IFLAG USA_AGENCY USA_ATCF_ID USA_LAT USA_LON USA_RECORD USA_STATUS USA_WIND USA_PRES USA_SSHS USA_R34_NE USA_R34_SE USA_R34_SW USA_R34_NW USA_R50_NE USA_R50_SE USA_R50_SW USA_R50_NW USA_R64_NE USA_R64_SE USA_R64_SW USA_R64_NW USA_POCI USA_ROCI USA_RMW USA_EYE TOKYO_LAT TOKYO_LON TOKYO_GRADE TOKYO_WIND TOKYO_PRES TOKYO_R50_DIR TOKYO_R50_LONG TOKYO_R50_SHORT TOKYO_R30_DIR TOKYO_R30_LONG TOKYO_R30_SHORT TOKYO_LAND CMA_LAT CMA_LON CMA_CAT CMA_WIND CMA_PRES HKO_LAT HKO_LON HKO_CAT HKO_WIND HKO_PRES NEWDELHI_LAT NEWDELHI_LON NEWDELHI_GRADE NEWDELHI_WIND NEWDELHI_PRES NEWDELHI_CI NEWDELHI_DP NEWDELHI_POCI REUNION_LAT REUNION_LON REUNION_TYPE REUNION_WIND REUNION_PRES REUNION_TNUM REUNION_CI REUNION_RMW REUNION_R34_NE REUNION_R34_SE REUNION_R34_SW REUNION_R34_NW REUNION_R50_NE REUNION_R50_SE REUNION_R50_SW REUNION_R50_NW REUNION_R64_NE REUNION_R64_SE REUNION_R64_SW REUNION_R64_NW BOM_LAT BOM_LON BOM_TYPE BOM_WIND BOM_PRES BOM_TNUM BOM_CI BOM_RMW BOM_R34_NE BOM_R34_SE BOM_R34_SW BOM_R34_NW BOM_R50_NE BOM_R50_SE BOM_R50_SW BOM_R50_NW BOM_R64_NE BOM_R64_SE BOM_R64_SW BOM_R64_NW BOM_ROCI BOM_POCI BOM_EYE BOM_POS_METHOD BOM_PRES_METHOD NADI_LAT NADI_LON NADI_CAT NADI_WIND NADI_PRES WELLINGTON_LAT WELLINGTON_LON WELLINGTON_WIND WELLINGTON_PRES DS824_LAT DS824_LON DS824_STAGE DS824_WIND DS824_PRES TD9636_LAT TD9636_LON TD9636_STAGE TD9636_WIND TD9636_PRES TD9635_LAT TD9635_LON TD9635_WIND TD9635_PRES TD9635_ROCI NEUMANN_LAT NEUMANN_LON NEUMANN_CLASS NEUMANN_WIND NEUMANN_PRES MLC_LAT MLC_LON MLC_CLASS MLC_WIND MLC_PRES USA_GUST BOM_GUST BOM_GUST_PER REUNION_GUST REUNION_GUST_PER USA_SEAHGT USA_SEARAD_NE USA_SEARAD_SE USA_SEARAD_SW USA_SEARAD_NW STORM_SPEED STORM_DIR
1912336N13143 1912 68 WP MM NOT_NAMED 1912-12-01 09:00:00 NR 12.7000 143.000 main 1687 1678 __________O___ -1 12.7000 143.000 2 12 285
1912336N13143 1912 68 WP MM NOT_NAMED 1912-12-01 12:00:00 NR 12.8562 142.384 main 1689 1676 __________P___ -1 12.8562 142.384 2 12 285
1912336N13143 1912 68 WP MM NOT_NAMED 1912-12-01 15:00:00 NR 13.0093 141.774 main 1677 1663 __________P___ -1 13.0093 141.774 2 12 284
1912336N13143 1912 68 WP MM NOT_NAMED 1912-12-01 18:00:00 NR 13.1577 141.177 main 1674 1630 __________P___ -1 13.1577 141.177 2 12 284
1912336N13143 1912 68 WP MM NOT_NAMED 1912-12-01 21:00:00 NR 13.3000 140.600 main 1630 1577 __________O___ -1 13.3000 140.600 2 11 284
1912336N13143 1912 68 WP MM NOT_NAMED 1912-12-02 00:00:00 NR 13.4366 140.044 main 1567 1517 __________P___ -1 13.4366 140.044 2 11 284
1912336N13143 1912 68 WP MM NOT_NAMED 1912-12-02 03:00:00 NR 13.5756 139.481 main 1517 1455 __________P___ -1 13.5756 139.481 2 12 284
1912336N13143 1912 68 WP MM NOT_NAMED 1912-12-02 06:00:00 NR 13.7269 138.878 main 1455 1385 __________P___ -1 13.7269 138.878 2 13 285
1912336N13143 1912 68 WP MM NOT_NAMED 1912-12-02 09:00:00 NR 13.9000 138.200 main 1385 1306 __________O___ -1 13.9000 138.200 2 15 285
1912336N13143 1912 68 WP MM NOT_NAMED 1912-12-02 12:00:00 NR 14.1173 137.344 main 1295 1214 __________P___ -1 14.1173 137.344 2 18 285
1912336N13143 1912 68 WP MM NOT_NAMED 1912-12-02 15:00:00 NR 14.3525 136.421 main 1205 1125 __________P___ -1 14.3525 136.421 2 18 285
1912336N13143 1912 68 WP MM NOT_NAMED 1912-12-02 18:00:00 NR 14.5861 135.513 main 1114 1036 __________P___ -1 14.5861 135.513 2 17 285
1912336N13143 1912 68 WP MM NOT_NAMED 1912-12-02 21:00:00 NR 14.8000 134.700 main 1036 981 __________O___ -1 14.8000 134.700 2 14 286
1912336N13143 1912 68 WP MM NOT_NAMED 1912-12-03 00:00:00 NR 14.9654 134.107 main 981 933 __________P___ -1 14.9654 134.107 2 11 287
1912336N13143 1912 68 WP MM NOT_NAMED 1912-12-03 03:00:00 NR 15.1123 133.616 main 933 897 __________P___ -1 15.1123 133.616 2 10 288
1912336N13143 1912 68 WP MM NOT_NAMED 1912-12-03 06:00:00 NR 15.2532 133.167 main 901 856 __________P___ -1 15.2532 133.167 2 9 288
1912336N13143 1912 68 WP MM NOT_NAMED 1912-12-03 09:00:00 NR 15.4000 132.700 main 856 807 __________O___ -1 15.4000 132.700 2 11 287
1912336N13143 1912 68 WP MM NOT_NAMED 1912-12-03 12:00:00 NR 15.5808 132.072 main 807 757 __________P___ -1 15.5808 132.072 2 13 287
1912336N13143 1912 68 WP MM NOT_NAMED 1912-12-03 15:00:00 NR 15.7662 131.426 main 753 706 __________P___ -1 15.7662 131.426 2 13 287
1912336N13143 1912 68 WP MM NOT_NAMED 1912-12-03 18:00:00 NR 15.9434 130.816 main 706 677 __________P___ -1 15.9434 130.816 2 11 287
1912336N13143 1912 68 WP MM NOT_NAMED 1912-12-03 21:00:00 NR 16.1000 130.300 main 677 654 __________O___ -1 16.1000 130.300 2 9 289
1912336N13143 1912 68 WP MM NOT_NAMED 1912-12-04 00:00:00 NR 16.2204 129.961 main 654 629 __________P___ -1 16.2204 129.961 2 6 292
1912336N13143 1912 68 WP MM NOT_NAMED 1912-12-04 03:00:00 NR 16.3211 129.717 main 629 614 __________P___ -1 16.3211 129.717 2 5 294
1912336N13143 1912 68 WP MM NOT_NAMED 1912-12-04 06:00:00 NR 16.4113 129.514 main 614 601 __________P___ -1 16.4113 129.514 2 4 294
1912336N13143 1912 68 WP MM NOT_NAMED 1912-12-04 09:00:00 NR 16.5000 129.300 main 601 578 __________O___ -1 16.5000 129.300 2 5 290
1912336N13143 1912 68 WP MM NOT_NAMED 1912-12-04 12:00:00 NR 16.6002 128.980 main 578 557 __________P___ -1 16.6002 128.980 2 7 288
1912336N13143 1912 68 WP MM NOT_NAMED 1912-12-04 15:00:00 NR 16.7002 128.643 main 548 529 __________P___ -1 16.7002 128.643 2 7 287
1912336N13143 1912 68 WP MM NOT_NAMED 1912-12-04 18:00:00 NR 16.8002 128.308 main 529 511 __________P___ -1 16.8002 128.308 2 6 288
1912336N13143 1912 68 WP MM NOT_NAMED 1912-12-04 21:00:00 NR 16.9000 128.000 main 511 495 __________O___ -1 16.9000 128.000 2 6 289
1912336N13143 1912 68 WP MM NOT_NAMED 1912-12-05 00:00:00 NR 16.9877 127.730 main 495 487 __________P___ -1 16.9877 127.730 2 5 290
1912336N13143 1912 68 WP MM NOT_NAMED 1912-12-05 03:00:00 NR 17.0773 127.490 main 487 473 __________P___ -1 17.0773 127.490 2 5 294
1912336N13143 1912 68 WP MM NOT_NAMED 1912-12-05 06:00:00 NR 17.1783 127.280 main 481 474 __________P___ -1 17.1783 127.280 2 4 301
1912336N13143 1912 68 WP MM NOT_NAMED 1912-12-05 09:00:00 NR 17.3000 127.100 main 475 462 __________O___ -1 17.3000 127.100 2 4 291
1912336N13143 1912 68 WP MM NOT_NAMED 1912-12-05 12:00:00 NR 17.3354 126.843 main 456 437 __________P___ -1 17.3354 126.843 2 5 284
1912336N13143 1912 68 WP MM NOT_NAMED 1912-12-05 15:00:00 NR 17.4094 126.629 main 437 428 __________P___ -1 17.4094 126.629 2 4 312
1912336N13143 1912 68 WP MM NOT_NAMED 1912-12-05 18:00:00 NR 17.6037 126.526 main 430 430 __________P___ -1 17.6037 126.526 2 6 358
1912336N13143 1912 68 WP MM NOT_NAMED 1912-12-05 21:00:00 NR 18.0000 126.600 main 449 449 __________O___ -1 18.0000 126.600 2 12 16
1912336N13143 1912 68 WP MM NOT_NAMED 1912-12-06 00:00:00 NR 18.7521 126.883 main 486 486 __________P___ -1 18.7521 126.883 2 18 23
1912336N13143 1912 68 WP MM NOT_NAMED 1912-12-06 03:00:00 NR 19.6944 127.354 main 555 555 __________P___ -1 19.6944 127.354 2 22 28
1912336N13143 1912 68 WP MM NOT_NAMED 1912-12-06 06:00:00 NR 20.6895 127.974 main 650 650 __________P___ -1 20.6895 127.974 2 23 33
1912336N13143 1912 68 WP MM NOT_NAMED 1912-12-06 09:00:00 NR 21.6000 128.700 main 758 758 __________O___ -1 21.6000 128.700 2 21 42
1912336N13143 1912 68 WP MM NOT_NAMED 1912-12-06 12:00:00 NR 22.2413 129.454 main 816 813 __________P___ -1 22.2413 129.454 2 19 51
1912336N13143 1912 68 WP MM NOT_NAMED 1912-12-06 15:00:00 NR 22.7778 130.298 main 875 871 __________P___ -1 22.7778 130.298 2 19 58
1912336N13143 1912 68 WP MM NOT_NAMED 1912-12-06 18:00:00 NR 23.2503 131.192 main 861 826 __________P___ -1 23.2503 131.192 2 19 61
1912336N13143 1912 68 WP MM NOT_NAMED 1912-12-06 21:00:00 NR 23.7000 132.100 main 826 789 __________O___ -1 23.7000 132.100 2 19 60
1912336N13143 1912 68 WP MM NOT_NAMED 1912-12-07 00:00:00 NR 24.1837 132.962 main 792 769 __________P___ -1 24.1837 132.962 2 18 59
1912336N13143 1912 68 WP MM NOT_NAMED 1912-12-07 03:00:00 NR 24.6552 133.831 main 766 761 __________P___ -1 24.6552 133.831 2 18 59
1912336N13143 1912 68 WP MM NOT_NAMED 1912-12-07 06:00:00 NR 25.1242 134.710 main 766 761 __________P___ -1 25.1242 134.710 2 19 59
1912336N13143 1912 68 WP MM NOT_NAMED 1912-12-07 09:00:00 NR 25.6000 135.600 main 766 761 __________O___ -1 25.6000 135.600 2 19 59
1912336N13143 1912 68 WP MM NOT_NAMED 1912-12-07 12:00:00 NR 26.0897 136.505 main 772 772 __________P___ -1 26.0897 136.505 2 19 59
1912336N13143 1912 68 WP MM NOT_NAMED 1912-12-07 15:00:00 NR 26.5901 137.425 main 774 742 __________P___ -1 26.5901 137.425 2 19 59
1912336N13143 1912 68 WP MM NOT_NAMED 1912-12-07 18:00:00 NR 27.0955 138.357 main 745 724 __________P___ -1 27.0955 138.357 2 20 59
1912336N13143 1912 68 WP MM NOT_NAMED 1912-12-07 21:00:00 NR 27.6000 139.300 main 728 __________O___ -1 27.6000 139.300 2 20 59

Digital Typhoon Data and Search

About IBTrACS Database

This database is a web-friendly format of International Best Track Archive for Climate Stewardship (IBTrACS), a global best track data archive curated by NOAA dating back to 1842.

Updated: 2021-10-27